ΕΜΥ, Εθνική Μετεωρολογική Υπηρεσία - Δελτία Καιρού, Προγνώσεις

ΑΕΡΟΝΑΥΤΙΛΙΑ

GREEK AIRPORTS CODES

LGAV 302020Z 00000KT 9999 -RA SCT010 BKN025 12/10 Q1012 RMK OVC080 NOSIG=

EUROPEAN AIRPORTS CODES

LFPO 302030Z 03010KT 8000 BKN009 07/05 Q1025 TEMPO BKN012=